Time,TemperatureF,DewpointF,PressureIn,WindDirection,WindDirectionDegrees,WindSpeedMPH,WindSpeedGustMPH,Humidity,HourlyPrecipIn,Conditions,Clouds,dailyrainin,SoftwareType,DateUTC
2013-06-11 00:05:00,57.8,57.2,30.00,West,268,0.0,0.0,98,0.04,,,0.01,Wunderground v.1.15,2013-06-11 04:05:00,
2013-06-11 00:10:00,57.6,57.0,30.00,SW,223,0.0,0.0,98,0.12,,,0.02,Wunderground v.1.15,2013-06-11 04:10:00,
2013-06-11 00:15:00,57.6,57.0,29.99,NNW,333,0.0,1.0,98,0.11,,,0.02,Wunderground v.1.15,2013-06-11 04:15:00,
2013-06-11 00:20:00,57.6,57.0,29.99,South,174,0.0,0.0,98,0.23,,,0.04,Wunderground v.1.15,2013-06-11 04:20:00,
2013-06-11 00:25:00,57.5,56.9,29.99,South,174,0.0,0.0,98,0.11,,,0.04,Wunderground v.1.15,2013-06-11 04:25:00,
2013-06-11 00:35:00,57.5,56.9,29.99,WNW,296,0.0,0.0,98,0.11,,,0.06,Wunderground v.1.15,2013-06-11 04:35:00,
2013-06-11 00:40:00,57.5,56.9,29.99,WNW,295,0.0,0.0,98,0.15,,,0.07,Wunderground v.1.15,2013-06-11 04:40:00,
2013-06-11 00:45:00,57.5,56.9,29.97,WNW,295,0.0,0.0,98,0.29,,,0.09,Wunderground v.1.15,2013-06-11 04:45:00,
2013-06-11 00:49:00,57.5,56.9,29.97,WNW,295,0.0,0.0,98,0.15,,,0.09,Wunderground v.1.15,2013-06-11 04:49:00,
2013-06-11 00:54:00,57.3,56.7,29.97,North,352,0.0,0.0,98,0.07,,,0.10,Wunderground v.1.15,2013-06-11 04:54:00,
2013-06-11 01:00:00,57.3,56.7,29.97,WSW,250,0.0,0.0,98,0.07,,,0.10,Wunderground v.1.15,2013-06-11 05:00:00,
2013-06-11 01:09:00,57.2,56.6,29.97,WSW,254,0.0,0.0,98,0.06,,,0.11,Wunderground v.1.15,2013-06-11 05:09:00,
2013-06-11 01:14:00,57.2,56.6,29.96,NNW,339,0.0,0.0,98,0.04,,,0.11,Wunderground v.1.15,2013-06-11 05:14:00,
2013-06-11 01:20:00,57.0,56.4,29.96,NE,38,0.0,0.0,98,0.04,,,0.12,Wunderground v.1.15,2013-06-11 05:20:00,
2013-06-11 01:25:00,57.0,56.4,29.96,WSW,241,0.0,0.0,98,0.04,,,0.12,Wunderground v.1.15,2013-06-11 05:25:00,
2013-06-11 01:30:00,57.0,56.4,29.94,SW,233,0.0,0.0,98,0.05,,,0.12,Wunderground v.1.15,2013-06-11 05:30:00,
2013-06-11 01:35:00,57.0,56.4,29.94,WSW,250,0.0,0.0,98,0.05,,,0.13,Wunderground v.1.15,2013-06-11 05:35:00,
2013-06-11 01:45:00,56.9,56.3,29.93,NE,34,0.0,1.0,98,0.04,,,0.13,Wunderground v.1.15,2013-06-11 05:45:00,
2013-06-11 01:50:00,56.7,56.1,29.93,SW,217,1.0,1.0,98,0.00,,,0.13,Wunderground v.1.15,2013-06-11 05:50:00,
2013-06-11 01:55:00,56.7,56.1,29.93,WNW,294,0.0,1.0,98,0.00,,,0.14,Wunderground v.1.15,2013-06-11 05:55:00,
2013-06-11 02:00:00,56.7,56.1,29.92,SSE,160,0.0,0.0,98,0.13,,,0.15,Wunderground v.1.15,2013-06-11 06:00:00,
2013-06-11 02:05:00,56.6,56.0,29.92,WSW,258,0.0,0.0,98,0.06,,,0.15,Wunderground v.1.15,2013-06-11 06:05:00,
2013-06-11 02:15:00,56.6,56.0,29.91,NW,312,0.0,0.0,98,0.00,,,0.16,Wunderground v.1.15,2013-06-11 06:15:00,
2013-06-11 02:20:00,56.6,56.0,29.91,ESE,104,0.0,0.0,98,0.00,,,0.16,Wunderground v.1.15,2013-06-11 06:20:00,
2013-06-11 02:25:00,56.5,55.9,29.91,NW,323,0.0,3.0,98,0.08,,,0.17,Wunderground v.1.15,2013-06-11 06:25:00,
2013-06-11 02:30:00,56.5,55.9,29.91,West,268,0.0,0.0,98,0.07,,,0.17,Wunderground v.1.15,2013-06-11 06:30:00,
2013-06-11 02:35:00,56.5,55.9,29.91,West,267,1.0,1.0,98,0.05,,,0.18,Wunderground v.1.15,2013-06-11 06:35:00,
2013-06-11 02:40:00,56.3,55.7,29.91,South,182,0.0,0.0,98,0.15,,,0.19,Wunderground v.1.15,2013-06-11 06:40:00,
2013-06-11 02:50:00,56.3,55.7,29.90,NNE,28,0.0,0.0,98,0.17,,,0.21,Wunderground v.1.15,2013-06-11 06:50:00,
2013-06-11 02:55:00,56.3,55.7,29.90,West,281,0.0,0.0,98,0.07,,,0.21,Wunderground v.1.15,2013-06-11 06:55:00,
2013-06-11 03:00:00,56.2,55.6,29.90,NNW,339,1.0,1.0,98,0.21,,,0.22,Wunderground v.1.15,2013-06-11 07:00:00,
2013-06-11 03:05:00,56.0,55.4,29.90,West,272,1.0,1.0,98,0.12,,,0.23,Wunderground v.1.15,2013-06-11 07:05:00,
2013-06-11 03:10:00,56.0,55.4,29.90,SE,137,1.0,1.0,98,0.07,,,0.23,Wunderground v.1.15,2013-06-11 07:10:00,
2013-06-11 03:20:00,55.9,55.3,29.89,WSW,248,1.0,2.0,98,0.10,,,0.25,Wunderground v.1.15,2013-06-11 07:20:00,
2013-06-11 03:25:00,55.7,55.1,29.89,NW,326,1.0,2.0,98,0.06,,,0.26,Wunderground v.1.15,2013-06-11 07:25:00,
2013-06-11 03:30:00,55.7,55.1,29.88,WSW,254,1.0,1.0,98,0.06,,,0.26,Wunderground v.1.15,2013-06-11 07:30:00,
2013-06-11 03:35:00,55.6,55.0,29.88,WSW,253,1.0,1.0,98,0.05,,,0.26,Wunderground v.1.15,2013-06-11 07:35:00,
2013-06-11 03:40:00,55.6,55.0,29.88,SW,234,1.0,1.0,98,0.05,,,0.27,Wunderground v.1.15,2013-06-11 07:40:00,
2013-06-11 03:45:00,55.4,54.8,29.87,WSW,239,1.0,1.0,98,0.05,,,0.27,Wunderground v.1.15,2013-06-11 07:45:00,
2013-06-11 03:55:00,55.1,54.5,29.87,SSE,161,2.0,2.0,98,0.04,,,0.28,Wunderground v.1.15,2013-06-11 07:55:00,
2013-06-11 04:00:00,55.0,54.4,29.87,North,350,0.0,0.0,98,0.04,,,0.28,Wunderground v.1.15,2013-06-11 08:00:00,
2013-06-11 04:05:00,55.0,54.4,29.87,ENE,59,1.0,1.0,98,0.06,,,0.29,Wunderground v.1.15,2013-06-11 08:05:00,
2013-06-11 04:14:00,54.7,54.1,29.86,WSW,250,1.0,1.0,98,0.07,,,0.30,Wunderground v.1.15,2013-06-11 08:14:00,
2013-06-11 04:19:00,54.7,54.1,29.86,WSW,240,1.0,1.0,98,0.09,,,0.31,Wunderground v.1.15,2013-06-11 08:19:00,
2013-06-11 04:25:00,54.7,54.1,29.86,SW,233,1.0,1.0,98,0.08,,,0.31,Wunderground v.1.15,2013-06-11 08:25:00,
2013-06-11 04:34:00,54.5,53.9,29.85,WSW,251,1.0,5.0,98,0.06,,,0.32,Wunderground v.1.15,2013-06-11 08:34:00,
2013-06-11 04:40:00,54.5,53.9,29.85,NE,42,1.0,1.0,98,0.19,,,0.34,Wunderground v.1.15,2013-06-11 08:40:00,
2013-06-11 04:45:00,54.5,53.9,29.84,West,261,1.0,1.0,98,0.30,,,0.35,Wunderground v.1.15,2013-06-11 08:45:00,
2013-06-11 04:50:00,54.5,53.9,29.84,NW,309,1.0,1.0,98,0.13,,,0.35,Wunderground v.1.15,2013-06-11 08:50:00,
2013-06-11 05:00:00,54.4,53.8,29.84,SW,223,1.0,3.0,98,0.07,,,0.38,Wunderground v.1.15,2013-06-11 09:00:00,
2013-06-11 05:05:00,54.4,53.8,29.84,WNW,301,1.0,3.0,98,0.07,,,0.39,Wunderground v.1.15,2013-06-11 09:05:00,
2013-06-11 05:10:00,54.4,53.8,29.84,West,275,0.0,1.0,98,0.04,,,0.39,Wunderground v.1.15,2013-06-11 09:10:00,
2013-06-11 05:15:00,54.2,53.6,29.83,WSW,250,0.0,1.0,98,0.00,,,0.39,Wunderground v.1.15,2013-06-11 09:15:00,
2013-06-11 05:20:00,54.2,53.6,29.83,WSW,243,1.0,1.0,98,0.00,,,0.39,Wunderground v.1.15,2013-06-11 09:20:00,
2013-06-11 05:25:00,54.1,53.5,29.83,North,356,1.0,1.0,98,0.00,,,0.39,Wunderground v.1.15,2013-06-11 09:25:00,
2013-06-11 05:35:00,54.1,53.8,29.83,NW,308,1.0,2.0,99,0.10,,,0.41,Wunderground v.1.15,2013-06-11 09:35:00,
2013-06-11 05:40:00,54.1,53.8,29.83,NW,309,1.0,5.0,99,0.10,,,0.41,Wunderground v.1.15,2013-06-11 09:40:00,
2013-06-11 05:45:00,54.1,53.8,29.82,SSW,193,1.0,5.0,99,0.00,,,0.41,Wunderground v.1.15,2013-06-11 09:45:00,
2013-06-11 05:50:00,54.1,53.8,29.82,SSW,210,0.0,0.0,99,0.00,,,0.41,Wunderground v.1.15,2013-06-11 09:50:00,
2013-06-11 05:55:00,54.1,53.8,29.82,ENE,58,0.0,0.0,99,0.00,,,0.41,Wunderground v.1.15,2013-06-11 09:55:00,
2013-06-11 06:05:00,53.9,53.6,29.81,South,191,0.0,0.0,99,0.07,,,0.43,Wunderground v.1.15,2013-06-11 10:05:00,
2013-06-11 06:10:00,53.9,53.6,29.81,West,265,0.0,2.0,99,0.05,,,0.43,Wunderground v.1.15,2013-06-11 10:10:00,
2013-06-11 06:15:00,53.9,53.6,29.81,WNW,292,1.0,2.0,99,0.00,,,0.43,Wunderground v.1.15,2013-06-11 10:15:00,
2013-06-11 06:20:00,53.9,53.6,29.81,NW,309,1.0,6.0,99,0.00,,,0.43,Wunderground v.1.15,2013-06-11 10:20:00,
2013-06-11 06:25:00,53.9,53.6,29.81,SW,226,1.0,6.0,99,0.00,,,0.43,Wunderground v.1.15,2013-06-11 10:25:00,
2013-06-11 06:30:00,53.9,53.6,29.80,SW,234,1.0,1.0,99,0.00,,,0.43,Wunderground v.1.15,2013-06-11 10:30:00,
2013-06-11 06:40:00,53.9,53.6,29.80,WNW,282,1.0,1.0,99,0.00,,,0.43,Wunderground v.1.15,2013-06-11 10:40:00,
2013-06-11 06:45:00,53.9,53.6,29.79,WNW,291,0.0,2.0,99,0.00,,,0.44,Wunderground v.1.15,2013-06-11 10:45:00,
2013-06-11 06:50:00,53.9,53.6,29.79,SW,227,0.0,0.0,99,0.04,,,0.45,Wunderground v.1.15,2013-06-11 10:50:00,
2013-06-11 06:55:00,53.9,53.6,29.79,NNW,335,0.0,0.0,99,0.04,,,0.45,Wunderground v.1.15,2013-06-11 10:55:00,
2013-06-11 07:00:00,53.9,53.6,29.78,WNW,299,0.0,0.0,99,0.04,,,0.45,Wunderground v.1.15,2013-06-11 11:00:00,
2013-06-11 07:10:00,53.9,53.6,29.78,NE,49,0.0,0.0,99,0.00,,,0.45,Wunderground v.1.15,2013-06-11 11:10:00,
2013-06-11 07:15:00,53.9,53.6,29.77,NW,315,1.0,1.0,99,0.00,,,0.46,Wunderground v.1.15,2013-06-11 11:15:00,
2013-06-11 07:20:00,53.9,53.6,29.77,SW,223,1.0,1.0,99,0.07,,,0.47,Wunderground v.1.15,2013-06-11 11:20:00,
2013-06-11 07:25:00,53.9,53.6,29.77,NW,313,1.0,2.0,99,0.07,,,0.47,Wunderground v.1.15,2013-06-11 11:25:00,
2013-06-11 07:34:00,54.1,53.8,29.77,NNW,346,1.0,2.0,99,0.00,,,0.47,Wunderground v.1.15,2013-06-11 11:34:00,
2013-06-11 07:40:00,54.1,53.8,29.77,NNW,346,1.0,1.0,99,0.00,,,0.49,Wunderground v.1.15,2013-06-11 11:40:00,
2013-06-11 07:45:00,54.1,53.8,29.76,NW,311,1.0,1.0,99,0.00,,,0.49,Wunderground v.1.15,2013-06-11 11:45:00,
2013-06-11 07:50:00,54.1,53.8,29.76,ENE,69,1.0,1.0,99,0.06,,,0.50,Wunderground v.1.15,2013-06-11 11:50:00,
2013-06-11 07:59:00,54.1,53.8,29.75,WNW,295,1.0,1.0,99,0.09,,,0.51,Wunderground v.1.15,2013-06-11 11:59:00,
2013-06-11 08:04:00,54.1,53.8,29.75,West,272,0.0,1.0,99,0.05,,,0.51,Wunderground v.1.15,2013-06-11 12:04:00,
2013-06-11 08:10:00,54.2,53.9,29.75,NW,326,0.0,0.0,99,0.04,,,0.51,Wunderground v.1.15,2013-06-11 12:10:00,
2013-06-11 08:19:00,54.4,54.1,29.74,NNW,333,0.0,0.0,99,0.00,,,0.51,Wunderground v.1.15,2013-06-11 12:19:00,
2013-06-11 08:25:00,54.4,54.1,29.74,NNW,343,0.0,0.0,99,0.00,,,0.51,Wunderground v.1.15,2013-06-11 12:25:00,
2013-06-11 08:30:00,54.4,54.1,29.74,SE,126,1.0,1.0,99,0.00,,,0.51,Wunderground v.1.15,2013-06-11 12:30:00,
2013-06-11 08:35:00,54.4,54.1,29.74,West,268,0.0,1.0,99,0.00,,,0.52,Wunderground v.1.15,2013-06-11 12:35:00,
2013-06-11 08:40:00,54.4,54.1,29.74,SW,227,0.0,0.0,99,0.00,,,0.52,Wunderground v.1.15,2013-06-11 12:40:00,
2013-06-11 08:50:00,54.4,54.1,29.73,West,271,0.0,0.0,99,0.00,,,0.52,Wunderground v.1.15,2013-06-11 12:50:00,
2013-06-11 08:55:00,54.4,54.1,29.73,NNW,333,0.0,0.0,99,0.04,,,0.52,Wunderground v.1.15,2013-06-11 12:55:00,
2013-06-11 09:00:00,54.4,54.1,29.72,SSW,209,0.0,0.0,99,0.04,,,0.52,Wunderground v.1.15,2013-06-11 13:00:00,
2013-06-11 09:05:00,54.4,54.1,29.72,NW,308,1.0,1.0,99,0.04,,,0.52,Wunderground v.1.15,2013-06-11 13:05:00,
2013-06-11 09:10:00,54.4,54.1,29.72,North,0,1.0,1.0,99,0.00,,,0.52,Wunderground v.1.15,2013-06-11 13:10:00,
2013-06-11 09:15:00,54.4,54.1,29.71,WNW,301,1.0,1.0,99,0.00,,,0.52,Wunderground v.1.15,2013-06-11 13:15:00,
2013-06-11 09:25:00,54.5,54.2,29.71,NNW,335,0.0,0.0,99,0.00,,,0.52,Wunderground v.1.15,2013-06-11 13:25:00,
2013-06-11 09:30:00,54.5,54.2,29.70,SW,236,0.0,0.0,99,0.00,,,0.52,Wunderground v.1.15,2013-06-11 13:30:00,
2013-06-11 09:35:00,54.5,54.2,29.70,NNW,339,0.0,0.0,99,0.00,,,0.55,Wunderground v.1.15,2013-06-11 13:35:00,
2013-06-11 09:40:00,54.5,54.2,29.70,NNW,340,0.0,0.0,99,0.04,,,0.55,Wunderground v.1.15,2013-06-11 13:40:00,
2013-06-11 09:45:00,54.7,54.7,29.69,NW,311,0.0,1.0,100,0.00,,,0.56,Wunderground v.1.15,2013-06-11 13:45:00,
2013-06-11 09:55:00,54.7,54.7,29.69,WNW,294,0.0,0.0,100,0.00,,,0.56,Wunderground v.1.15,2013-06-11 13:55:00,
2013-06-11 10:00:00,54.7,54.7,29.69,WNW,302,0.0,1.0,100,0.00,,,0.56,Wunderground v.1.15,2013-06-11 14:00:00,
2013-06-11 10:05:00,54.7,54.7,29.69,WNW,302,0.0,1.0,100,0.00,,,0.56,Wunderground v.1.15,2013-06-11 14:05:00,
2013-06-11 10:10:00,54.8,54.8,29.69,NW,318,0.0,0.0,100,0.00,,,0.56,Wunderground v.1.15,2013-06-11 14:10:00,
2013-06-11 10:15:00,54.8,54.8,29.68,North,354,0.0,0.0,100,0.00,,,0.56,Wunderground v.1.15,2013-06-11 14:15:00,
2013-06-11 10:20:00,54.8,54.8,29.68,North,354,0.0,0.0,100,0.00,,,0.56,Wunderground v.1.15,2013-06-11 14:20:00,
2013-06-11 10:30:00,-999.9,-99.9,29.69,North,32767,-999.0,0.0,255,-99.99,,,0.56,Wunderground v.1.15,2013-06-11 14:30:00,
2013-06-11 10:35:00,-999.9,-99.9,29.69,North,32767,-999.0,0.0,255,-99.99,,,0.56,Wunderground v.1.15,2013-06-11 14:35:00,
2013-06-11 10:40:00,-999.9,-99.9,29.69,North,32767,-999.0,0.0,255,-99.99,,,0.56,Wunderground v.1.15,2013-06-11 14:40:00,
2013-06-11 10:45:00,-999.9,-99.9,29.68,North,32767,-999.0,0.0,255,-99.99,,,0.56,Wunderground v.1.15,2013-06-11 14:45:00,
2013-06-11 10:50:00,-999.9,-99.9,29.68,North,32767,-999.0,0.0,255,-99.99,,,0.56,Wunderground v.1.15,2013-06-11 14:50:00,
2013-06-11 11:00:00,-999.9,-99.9,29.68,North,32767,-999.0,0.0,255,-99.99,,,0.56,Wunderground v.1.15,2013-06-11 15:00:00,
2013-06-11 11:05:00,-999.9,-99.9,29.68,North,32767,-999.0,0.0,255,-99.99,,,0.56,Wunderground v.1.15,2013-06-11 15:05:00,
2013-06-11 11:10:00,-999.9,-99.9,29.68,North,32767,-999.0,0.0,255,-99.99,,,0.56,Wunderground v.1.15,2013-06-11 15:10:00,
2013-06-11 11:15:00,-999.9,-99.9,29.68,North,32767,-999.0,0.0,255,-99.99,,,0.56,Wunderground v.1.15,2013-06-11 15:15:00,
2013-06-11 11:20:00,-999.9,-99.9,29.68,North,32767,-999.0,0.0,255,-99.99,,,0.56,Wunderground v.1.15,2013-06-11 15:20:00,
2013-06-11 11:25:00,-999.9,-99.9,29.68,North,32767,-999.0,0.0,255,-99.99,,,0.56,Wunderground v.1.15,2013-06-11 15:25:00,
2013-06-11 11:35:00,-999.9,-99.9,29.67,North,32767,-999.0,0.0,255,-99.99,,,0.56,Wunderground v.1.15,2013-06-11 15:35:00,
2013-06-11 11:40:00,-999.9,-99.9,29.67,North,32767,-999.0,0.0,255,-99.99,,,0.56,Wunderground v.1.15,2013-06-11 15:40:00,
2013-06-11 11:45:00,-999.9,-99.9,29.67,North,32767,-999.0,0.0,255,-99.99,,,0.56,Wunderground v.1.15,2013-06-11 15:45:00,
2013-06-11 11:54:00,-999.9,-99.9,29.67,North,32767,-999.0,0.0,255,-99.99,,,0.56,Wunderground v.1.15,2013-06-11 15:54:00,
2013-06-11 11:59:00,-999.9,-99.9,29.67,North,32767,-999.0,0.0,255,-99.99,,,0.56,Wunderground v.1.15,2013-06-11 15:59:00,
2013-06-11 12:05:00,-999.9,-99.9,29.67,North,32767,-999.0,0.0,255,-99.99,,,0.56,Wunderground v.1.15,2013-06-11 16:05:00,
2013-06-11 12:14:00,-999.9,-99.9,29.67,North,32767,-999.0,0.0,255,-99.99,,,0.56,Wunderground v.1.15,2013-06-11 16:14:00,
2013-06-11 12:19:00,-999.9,-99.9,29.67,North,32767,-999.0,0.0,255,-99.99,,,0.56,Wunderground v.1.15,2013-06-11 16:19:00,
2013-06-11 12:25:00,-999.9,-99.9,29.67,North,32767,-999.0,0.0,255,-99.99,,,0.56,Wunderground v.1.15,2013-06-11 16:25:00,
2013-06-11 12:30:00,-999.9,-99.9,29.67,North,32767,-999.0,0.0,255,-99.99,,,0.56,Wunderground v.1.15,2013-06-11 16:30:00,
2013-06-11 12:39:00,-999.9,-99.9,29.67,North,32767,-999.0,0.0,255,-99.99,,,0.56,Wunderground v.1.15,2013-06-11 16:39:00,
2013-06-11 12:45:00,-999.9,-99.9,29.67,North,32767,-999.0,0.0,255,-99.99,,,0.56,Wunderground v.1.15,2013-06-11 16:45:00,
2013-06-11 12:50:00,-999.9,-99.9,29.67,North,32767,-999.0,0.0,255,-99.99,,,0.56,Wunderground v.1.15,2013-06-11 16:50:00,
2013-06-11 12:55:00,-999.9,-99.9,29.67,North,32767,-999.0,0.0,255,-99.99,,,0.56,Wunderground v.1.15,2013-06-11 16:55:00,
2013-06-11 13:05:00,-999.9,-99.9,29.66,North,32767,-999.0,0.0,255,-99.99,,,0.56,Wunderground v.1.15,2013-06-11 17:05:00,
2013-06-11 13:15:00,-999.9,-99.9,29.67,North,32767,-999.0,0.0,255,-99.99,,,0.56,Wunderground v.1.15,2013-06-11 17:15:00,
2013-06-11 13:20:00,-999.9,-99.9,29.67,North,32767,-999.0,0.0,255,-99.99,,,0.56,Wunderground v.1.15,2013-06-11 17:20:00,
2013-06-11 13:25:00,-999.9,-99.9,29.67,North,32767,-999.0,0.0,255,-99.99,,,0.56,Wunderground v.1.15,2013-06-11 17:25:00,
2013-06-11 13:30:00,-999.9,-99.9,29.66,North,32767,-999.0,0.0,255,-99.99,,,0.56,Wunderground v.1.15,2013-06-11 17:30:00,
2013-06-11 13:35:00,-999.9,-99.9,29.66,North,32767,-999.0,0.0,255,-99.99,,,0.56,Wunderground v.1.15,2013-06-11 17:35:00,
2013-06-11 13:40:00,-999.9,-99.9,29.66,North,32767,-999.0,0.0,255,-99.99,,,0.56,Wunderground v.1.15,2013-06-11 17:40:00,
2013-06-11 13:50:00,-999.9,-99.9,29.66,North,32767,-999.0,0.0,255,-99.99,,,0.56,Wunderground v.1.15,2013-06-11 17:50:00,
2013-06-11 13:55:00,-999.9,-99.9,29.66,North,32767,-999.0,0.0,255,-99.99,,,0.56,Wunderground v.1.15,2013-06-11 17:55:00,
2013-06-11 14:00:00,-999.9,-99.9,29.65,North,32767,-999.0,0.0,255,-99.99,,,0.56,Wunderground v.1.15,2013-06-11 18:00:00,
2013-06-11 14:05:00,-999.9,-99.9,29.65,North,32767,-999.0,0.0,255,-99.99,,,0.56,Wunderground v.1.15,2013-06-11 18:05:00,
2013-06-11 14:10:00,-999.9,-99.9,29.65,North,32767,-999.0,0.0,255,-99.99,,,0.56,Wunderground v.1.15,2013-06-11 18:10:00,
2013-06-11 14:20:00,-999.9,-99.9,29.65,North,32767,-999.0,0.0,255,-99.99,,,0.56,Wunderground v.1.15,2013-06-11 18:20:00,
2013-06-11 14:25:00,-999.9,-99.9,29.65,North,32767,-999.0,0.0,255,-99.99,,,0.56,Wunderground v.1.15,2013-06-11 18:25:00,
2013-06-11 14:30:00,-999.9,-99.9,29.64,North,32767,-999.0,0.0,255,-99.99,,,0.56,Wunderground v.1.15,2013-06-11 18:30:00,
2013-06-11 14:39:00,-999.9,-99.9,29.64,North,32767,-999.0,0.0,255,-99.99,,,0.56,Wunderground v.1.15,2013-06-11 18:39:00,
2013-06-11 14:44:00,-999.9,-99.9,29.64,North,32767,-999.0,0.0,255,-99.99,,,0.56,Wunderground v.1.15,2013-06-11 18:44:00,
2013-06-11 14:50:00,-999.9,-99.9,29.64,North,32767,-999.0,0.0,255,-99.99,,,0.56,Wunderground v.1.15,2013-06-11 18:50:00,
2013-06-11 14:59:00,-999.9,-99.9,29.64,North,32767,-999.0,0.0,255,-99.99,,,0.56,Wunderground v.1.15,2013-06-11 18:59:00,
2013-06-11 15:04:00,-999.9,-99.9,29.64,North,32767,-999.0,0.0,255,-99.99,,,0.56,Wunderground v.1.15,2013-06-11 19:04:00,
2013-06-11 15:09:00,-999.9,-99.9,29.64,North,32767,-999.0,0.0,255,-99.99,,,0.56,Wunderground v.1.15,2013-06-11 19:09:00,
2013-06-11 15:15:00,-999.9,-99.9,29.63,North,32767,-999.0,0.0,255,-99.99,,,0.56,Wunderground v.1.15,2013-06-11 19:15:00,
2013-06-11 15:20:00,-999.9,-99.9,29.63,North,32767,-999.0,0.0,255,-99.99,,,0.56,Wunderground v.1.15,2013-06-11 19:20:00,
2013-06-11 15:29:00,-999.9,-99.9,29.63,North,32767,-999.0,0.0,255,-99.99,,,0.56,Wunderground v.1.15,2013-06-11 19:29:00,
2013-06-11 15:35:00,-999.9,-99.9,29.63,North,32767,-999.0,0.0,255,-99.99,,,0.56,Wunderground v.1.15,2013-06-11 19:35:00,
2013-06-11 15:40:00,-999.9,-99.9,29.63,North,32767,-999.0,0.0,255,-99.99,,,0.56,Wunderground v.1.15,2013-06-11 19:40:00,
2013-06-11 15:45:00,-999.9,-99.9,29.62,North,32767,-999.0,0.0,255,-99.99,,,0.56,Wunderground v.1.15,2013-06-11 19:45:00,
2013-06-11 15:50:00,-999.9,-99.9,29.62,North,32767,-999.0,0.0,255,-99.99,,,0.56,Wunderground v.1.15,2013-06-11 19:50:00,
2013-06-11 15:55:00,-999.9,-99.9,29.62,North,32767,-999.0,0.0,255,-99.99,,,0.56,Wunderground v.1.15,2013-06-11 19:55:00,
2013-06-11 16:00:00,-999.9,-99.9,29.62,North,32767,-999.0,0.0,255,-99.99,,,0.56,Wunderground v.1.15,2013-06-11 20:00:00,
2013-06-11 16:05:00,-999.9,-99.9,29.62,NW,306,0.0,0.0,255,0.00,,,0.56,Wunderground v.1.15,2013-06-11 20:05:00,
2013-06-11 16:10:00,-999.9,-99.9,29.62,NW,306,0.0,0.0,255,0.00,,,0.56,Wunderground v.1.15,2013-06-11 20:10:00,
2013-06-11 16:15:00,-999.9,-99.9,29.62,NW,306,0.0,0.0,255,0.00,,,0.56,Wunderground v.1.15,2013-06-11 20:15:00,
2013-06-11 16:20:00,-999.9,-99.9,29.62,North,32767,-999.0,0.0,255,-99.99,,,0.56,Wunderground v.1.15,2013-06-11 20:20:00,
2013-06-11 16:25:00,-999.9,-99.9,29.62,North,32767,-999.0,0.0,255,-99.99,,,0.56,Wunderground v.1.15,2013-06-11 20:25:00,
2013-06-11 16:35:00,-999.9,-99.9,29.61,North,32767,-999.0,0.0,255,-99.99,,,0.56,Wunderground v.1.15,2013-06-11 20:35:00,
2013-06-11 16:40:00,-999.9,-99.9,29.61,North,32767,-999.0,0.0,255,-99.99,,,0.56,Wunderground v.1.15,2013-06-11 20:40:00,
2013-06-11 16:45:00,-999.9,-99.9,29.60,North,32767,-999.0,0.0,255,-99.99,,,0.56,Wunderground v.1.15,2013-06-11 20:45:00,
2013-06-11 16:50:00,-999.9,-99.9,29.60,North,32767,-999.0,0.0,255,-99.99,,,0.56,Wunderground v.1.15,2013-06-11 20:50:00,
2013-06-11 16:55:00,-999.9,-99.9,29.60,North,32767,-999.0,0.0,255,-99.99,,,0.56,Wunderground v.1.15,2013-06-11 20:55:00,
2013-06-11 17:05:00,-999.9,-99.9,29.60,North,32767,-999.0,0.0,255,-99.99,,,0.56,Wunderground v.1.15,2013-06-11 21:05:00,
2013-06-11 17:10:00,-999.9,-99.9,29.60,North,32767,-999.0,0.0,255,-99.99,,,0.56,Wunderground v.1.15,2013-06-11 21:10:00,
2013-06-11 17:15:00,-999.9,-99.9,29.59,North,32767,-999.0,0.0,255,-99.99,,,0.56,Wunderground v.1.15,2013-06-11 21:15:00,
2013-06-11 17:20:00,-999.9,-99.9,29.59,North,32767,-999.0,0.0,255,-99.99,,,0.56,Wunderground v.1.15,2013-06-11 21:20:00,
2013-06-11 17:25:00,-999.9,-99.9,29.59,WSW,240,0.0,0.0,255,0.00,,,0.56,Wunderground v.1.15,2013-06-11 21:25:00,
2013-06-11 17:30:00,-999.9,-99.9,29.59,WSW,240,0.0,0.0,255,0.00,,,0.56,Wunderground v.1.15,2013-06-11 21:30:00,
2013-06-11 17:40:00,-999.9,-99.9,29.59,North,32767,-999.0,0.0,255,-99.99,,,0.56,Wunderground v.1.15,2013-06-11 21:40:00,
2013-06-11 17:45:00,-999.9,-99.9,29.58,North,32767,-999.0,0.0,255,-99.99,,,0.56,Wunderground v.1.15,2013-06-11 21:45:00,
2013-06-11 17:50:00,-999.9,-99.9,29.58,North,32767,-999.0,0.0,255,-99.99,,,0.56,Wunderground v.1.15,2013-06-11 21:50:00,
2013-06-11 17:55:00,-999.9,-99.9,29.58,West,272,0.0,0.0,255,0.00,,,0.56,Wunderground v.1.15,2013-06-11 21:55:00,
2013-06-11 18:00:00,-999.9,-99.9,29.58,West,272,0.0,0.0,255,0.00,,,0.56,Wunderground v.1.15,2013-06-11 22:00:00,
2013-06-11 18:10:00,-999.9,-99.9,29.58,West,272,0.0,0.0,255,0.00,,,0.56,Wunderground v.1.15,2013-06-11 22:10:00,
2013-06-11 18:15:00,-999.9,-99.9,29.57,North,32767,-999.0,0.0,255,-99.99,,,0.56,Wunderground v.1.15,2013-06-11 22:15:00,
2013-06-11 18:20:00,-999.9,-99.9,29.57,North,32767,-999.0,0.0,255,-99.99,,,0.56,Wunderground v.1.15,2013-06-11 22:20:00,
2013-06-11 18:25:00,-999.9,-99.9,29.57,North,32767,-999.0,0.0,255,-99.99,,,0.56,Wunderground v.1.15,2013-06-11 22:25:00,
2013-06-11 18:30:00,-999.9,-99.9,29.56,West,272,0.0,0.0,255,0.34,,,0.56,Wunderground v.1.15,2013-06-11 22:30:00,
2013-06-11 18:35:00,-999.9,-99.9,29.56,West,272,0.0,0.0,255,0.34,,,0.56,Wunderground v.1.15,2013-06-11 22:35:00,
2013-06-11 18:45:00,-999.9,-99.9,29.56,North,32767,-999.0,0.0,255,-99.99,,,0.56,Wunderground v.1.15,2013-06-11 22:45:00,
2013-06-11 18:50:00,-999.9,-99.9,29.56,North,32767,-999.0,0.0,255,-99.99,,,0.56,Wunderground v.1.15,2013-06-11 22:50:00,
2013-06-11 18:55:00,-999.9,-99.9,29.56,North,32767,-999.0,0.0,255,-99.99,,,0.56,Wunderground v.1.15,2013-06-11 22:55:00,
2013-06-11 19:00:00,-999.9,-99.9,29.56,North,32767,-999.0,0.0,255,-99.99,,,0.56,Wunderground v.1.15,2013-06-11 23:00:00,
2013-06-11 19:05:00,-999.9,-99.9,29.56,North,32767,-999.0,0.0,255,-99.99,,,0.56,Wunderground v.1.15,2013-06-11 23:05:00,
2013-06-11 19:15:00,-999.9,-99.9,29.57,North,32767,-999.0,0.0,255,-99.99,,,0.56,Wunderground v.1.15,2013-06-11 23:15:00,
2013-06-11 19:20:00,-999.9,-99.9,29.57,North,32767,-999.0,0.0,255,-99.99,,,0.56,Wunderground v.1.15,2013-06-11 23:20:00,
2013-06-11 19:25:00,-999.9,-99.9,29.57,North,32767,-999.0,0.0,255,-99.99,,,0.56,Wunderground v.1.15,2013-06-11 23:25:00,
2013-06-11 19:34:00,-999.9,-99.9,29.56,North,32767,-999.0,0.0,255,-99.99,,,0.56,Wunderground v.1.15,2013-06-11 23:34:00,
2013-06-11 19:39:00,-999.9,-99.9,29.56,North,32767,-999.0,0.0,255,-99.99,,,0.56,Wunderground v.1.15,2013-06-11 23:39:00,
2013-06-11 19:45:00,-999.9,-99.9,29.56,North,32767,-999.0,0.0,255,-99.99,,,0.56,Wunderground v.1.15,2013-06-11 23:45:00,
2013-06-11 19:54:00,-999.9,-99.9,29.56,North,32767,-999.0,0.0,255,-99.99,,,0.56,Wunderground v.1.15,2013-06-11 23:54:00,
2013-06-11 19:59:00,-999.9,-99.9,29.56,North,32767,-999.0,0.0,255,-99.99,,,0.56,Wunderground v.1.15,2013-06-11 23:59:00,
2013-06-11 20:04:00,-999.9,-99.9,29.56,North,32767,-999.0,0.0,255,-99.99,,,0.56,Wunderground v.1.15,2013-06-12 00:04:00,
2013-06-11 20:09:00,-999.9,-99.9,29.56,North,32767,-999.0,0.0,255,-99.99,,,0.56,Wunderground v.1.15,2013-06-12 00:09:00,
2013-06-11 20:15:00,-999.9,-99.9,29.56,North,32767,-999.0,0.0,255,-99.99,,,0.56,Wunderground v.1.15,2013-06-12 00:15:00,
2013-06-11 20:24:00,-999.9,-99.9,29.56,North,32767,-999.0,0.0,255,-99.99,,,0.56,Wunderground v.1.15,2013-06-12 00:24:00,
2013-06-11 20:30:00,-999.9,-99.9,29.56,North,32767,-999.0,0.0,255,-99.99,,,0.56,Wunderground v.1.15,2013-06-12 00:30:00,
2013-06-11 20:35:00,-999.9,-99.9,29.56,North,32767,-999.0,0.0,255,-99.99,,,0.56,Wunderground v.1.15,2013-06-12 00:35:00,
2013-06-11 20:40:00,-999.9,-99.9,29.56,North,32767,-999.0,0.0,255,-99.99,,,0.56,Wunderground v.1.15,2013-06-12 00:40:00,
2013-06-11 20:45:00,-999.9,-99.9,29.55,North,32767,-999.0,0.0,255,-99.99,,,0.56,Wunderground v.1.15,2013-06-12 00:45:00,
2013-06-11 20:55:00,-999.9,-99.9,29.55,North,32767,-999.0,0.0,255,-99.99,,,0.56,Wunderground v.1.15,2013-06-12 00:55:00,
2013-06-11 21:00:00,-999.9,-99.9,29.55,North,32767,-999.0,0.0,255,-99.99,,,0.56,Wunderground v.1.15,2013-06-12 01:00:00,
2013-06-11 21:05:00,-999.9,-99.9,29.55,North,32767,-999.0,0.0,255,-99.99,,,0.56,Wunderground v.1.15,2013-06-12 01:05:00,
2013-06-11 21:10:00,-999.9,-99.9,29.55,North,32767,-999.0,0.0,255,-99.99,,,0.56,Wunderground v.1.15,2013-06-12 01:10:00,
2013-06-11 21:15:00,-999.9,-99.9,29.56,North,32767,-999.0,0.0,255,-99.99,,,0.56,Wunderground v.1.15,2013-06-12 01:15:00,
2013-06-11 21:20:00,-999.9,-99.9,29.56,North,32767,-999.0,0.0,255,-99.99,,,0.56,Wunderground v.1.15,2013-06-12 01:20:00,
2013-06-11 21:30:00,-999.9,-99.9,29.56,North,32767,-999.0,0.0,255,-99.99,,,0.56,Wunderground v.1.15,2013-06-12 01:30:00,
2013-06-11 21:35:00,-999.9,-99.9,29.56,North,32767,-999.0,0.0,255,-99.99,,,0.56,Wunderground v.1.15,2013-06-12 01:35:00,
2013-06-11 21:40:00,-999.9,-99.9,29.56,North,32767,-999.0,0.0,255,-99.99,,,0.56,Wunderground v.1.15,2013-06-12 01:40:00,
2013-06-11 21:45:00,-999.9,-99.9,29.56,North,32767,-999.0,0.0,255,-99.99,,,0.56,Wunderground v.1.15,2013-06-12 01:45:00,
2013-06-11 21:50:00,-999.9,-99.9,29.56,North,32767,-999.0,0.0,255,-99.99,,,0.56,Wunderground v.1.15,2013-06-12 01:50:00,
2013-06-11 22:00:00,-999.9,-99.9,29.56,North,32767,-999.0,0.0,255,-99.99,,,0.56,Wunderground v.1.15,2013-06-12 02:00:00,
2013-06-11 22:05:00,-999.9,-99.9,29.56,North,32767,-999.0,0.0,255,-99.99,,,0.56,Wunderground v.1.15,2013-06-12 02:05:00,
2013-06-11 22:10:00,-999.9,-99.9,29.56,North,32767,-999.0,0.0,255,-99.99,,,0.56,Wunderground v.1.15,2013-06-12 02:10:00,
2013-06-11 22:15:00,-999.9,-99.9,29.56,North,32767,-999.0,0.0,255,-99.99,,,0.56,Wunderground v.1.15,2013-06-12 02:15:00,
2013-06-11 22:20:00,-999.9,-99.9,29.56,North,32767,-999.0,0.0,255,-99.99,,,0.56,Wunderground v.1.15,2013-06-12 02:20:00,
2013-06-11 22:30:00,-999.9,-99.9,29.56,North,32767,-999.0,0.0,255,-99.99,,,0.56,Wunderground v.1.15,2013-06-12 02:30:00,
2013-06-11 22:35:00,-999.9,-99.9,29.56,North,32767,-999.0,0.0,255,-99.99,,,0.56,Wunderground v.1.15,2013-06-12 02:35:00,
2013-06-11 22:44:00,-999.9,-99.9,29.55,North,32767,-999.0,0.0,255,-99.99,,,0.56,Wunderground v.1.15,2013-06-12 02:44:00,
2013-06-11 22:49:00,-999.9,-99.9,29.55,North,32767,-999.0,0.0,255,-99.99,,,0.56,Wunderground v.1.15,2013-06-12 02:49:00,
2013-06-11 22:54:00,-999.9,-99.9,29.55,North,32767,-999.0,0.0,255,-99.99,,,0.56,Wunderground v.1.15,2013-06-12 02:54:00,
2013-06-11 22:59:00,-999.9,-99.9,29.55,North,32767,-999.0,0.0,255,-99.99,,,0.56,Wunderground v.1.15,2013-06-12 02:59:00,
2013-06-11 23:09:00,-999.9,-99.9,29.55,North,32767,-999.0,0.0,255,-99.99,,,0.56,Wunderground v.1.15,2013-06-12 03:09:00,
2013-06-11 23:14:00,-999.9,-99.9,29.54,North,32767,-999.0,0.0,255,-99.99,,,0.56,Wunderground v.1.15,2013-06-12 03:14:00,
2013-06-11 23:19:00,-999.9,-99.9,29.54,North,32767,-999.0,0.0,255,-99.99,,,0.56,Wunderground v.1.15,2013-06-12 03:19:00,
2013-06-11 23:25:00,-999.9,-99.9,29.54,North,32767,-999.0,0.0,255,-99.99,,,0.56,Wunderground v.1.15,2013-06-12 03:25:00,
2013-06-11 23:30:00,-999.9,-99.9,29.54,North,32767,-999.0,0.0,255,-99.99,,,0.56,Wunderground v.1.15,2013-06-12 03:30:00,
2013-06-11 23:39:00,-999.9,-99.9,29.54,North,32767,-999.0,0.0,255,-99.99,,,0.56,Wunderground v.1.15,2013-06-12 03:39:00,
2013-06-11 23:44:00,-999.9,-99.9,29.54,North,32767,-999.0,0.0,255,-99.99,,,0.56,Wunderground v.1.15,2013-06-12 03:44:00,
2013-06-11 23:50:00,-999.9,-99.9,29.54,North,32767,-999.0,0.0,255,-99.99,,,0.56,Wunderground v.1.15,2013-06-12 03:50:00,
2013-06-11 23:55:00,-999.9,-99.9,29.54,North,32767,-999.0,0.0,255,-99.99,,,0.56,Wunderground v.1.15,2013-06-12 03:55:00,